sensor_id;sensor_type;location;lat;lon;timestamp;P1;P2;P0
78408;PMS5003;67697;50.750;-3.270;2023-04-01T00:00:46;3;3;
78408;PMS5003;67697;50.750;-3.270;2023-04-01T00:03:11;7;4;
78408;PMS5003;67697;50.750;-3.270;2023-04-01T00:05:37;4;2;
78408;PMS5003;67697;50.750;-3.270;2023-04-01T00:08:02;4;4;
78408;PMS5003;67697;50.750;-3.270;2023-04-01T00:10:28;9;5;
78408;PMS5003;67697;50.750;-3.270;2023-04-01T00:12:53;11;3;
78408;PMS5003;67697;50.750;-3.270;2023-04-01T00:15:19;5;2;
78408;PMS5003;67697;50.750;-3.270;2023-04-01T00:17:44;3;3;
78408;PMS5003;67697;50.750;-3.270;2023-04-01T00:20:10;7;3;
78408;PMS5003;67697;50.750;-3.270;2023-04-01T00:22:35;8;3;
78408;PMS5003;67697;50.750;-3.270;2023-04-01T00:25:01;8;3;
78408;PMS5003;67697;50.750;-3.270;2023-04-01T00:27:26;2;0;
78408;PMS5003;67697;50.750;-3.270;2023-04-01T00:29:52;2;2;
78408;PMS5003;67697;50.750;-3.270;2023-04-01T00:32:17;8;4;
78408;PMS5003;67697;50.750;-3.270;2023-04-01T00:34:43;2;2;
78408;PMS5003;67697;50.750;-3.270;2023-04-01T00:37:09;4;3;
78408;PMS5003;67697;50.750;-3.270;2023-04-01T00:39:35;3;2;
78408;PMS5003;67697;50.750;-3.270;2023-04-01T00:42:00;5;2;
78408;PMS5003;67697;50.750;-3.270;2023-04-01T00:44:26;1;1;
78408;PMS5003;67697;50.750;-3.270;2023-04-01T00:46:52;2;2;
78408;PMS5003;67697;50.750;-3.270;2023-04-01T00:49:18;3;1;
78408;PMS5003;67697;50.750;-3.270;2023-04-01T00:51:43;4;4;
78408;PMS5003;67697;50.750;-3.270;2023-04-01T00:54:08;3;2;
78408;PMS5003;67697;50.750;-3.270;2023-04-01T00:56:34;9;2;
78408;PMS5003;67697;50.750;-3.270;2023-04-01T00:59:00;7;3;
78408;PMS5003;67697;50.750;-3.270;2023-04-01T01:01:26;7;2;
78408;PMS5003;67697;50.750;-3.270;2023-04-01T01:03:51;3;2;
78408;PMS5003;67697;50.750;-3.270;2023-04-01T01:06:20;2;2;
78408;PMS5003;67697;50.750;-3.270;2023-04-01T01:08:47;9;2;
78408;PMS5003;67697;50.750;-3.270;2023-04-01T01:11:08;5;2;
78408;PMS5003;67697;50.750;-3.270;2023-04-01T01:13:34;3;2;
78408;PMS5003;67697;50.750;-3.270;2023-04-01T01:16:00;3;2;
78408;PMS5003;67697;50.750;-3.270;2023-04-01T01:18:26;4;3;
78408;PMS5003;67697;50.750;-3.270;2023-04-01T01:20:56;2;2;
78408;PMS5003;67697;50.750;-3.270;2023-04-01T01:25:43;4;2;
78408;PMS5003;67697;50.750;-3.270;2023-04-01T01:28:14;5;3;
78408;PMS5003;67697;50.750;-3.270;2023-04-01T01:30:35;1;1;
78408;PMS5003;67697;50.750;-3.270;2023-04-01T01:33:02;3;1;
78408;PMS5003;67697;50.750;-3.270;2023-04-01T01:35:25;10;5;
78408;PMS5003;67697;50.750;-3.270;2023-04-01T01:37:51;5;3;
78408;PMS5003;67697;50.750;-3.270;2023-04-01T01:40:15;2;2;
78408;PMS5003;67697;50.750;-3.270;2023-04-01T01:42:42;4;2;
78408;PMS5003;67697;50.750;-3.270;2023-04-01T01:45:07;4;4;
78408;PMS5003;67697;50.750;-3.270;2023-04-01T01:47:32;4;2;
78408;PMS5003;67697;50.750;-3.270;2023-04-01T01:49:57;3;3;
78408;PMS5003;67697;50.750;-3.270;2023-04-01T01:52:23;1;1;
78408;PMS5003;67697;50.750;-3.270;2023-04-01T01:54:49;4;2;
78408;PMS5003;67697;50.750;-3.270;2023-04-01T01:57:14;3;3;
78408;PMS5003;67697;50.750;-3.270;2023-04-01T01:59:40;5;4;
78408;PMS5003;67697;50.750;-3.270;2023-04-01T02:02:06;7;4;
78408;PMS5003;67697;50.750;-3.270;2023-04-01T02:04:31;2;2;
78408;PMS5003;67697;50.750;-3.270;2023-04-01T02:06:59;2;2;
78408;PMS5003;67697;50.750;-3.270;2023-04-01T02:09:23;3;2;
78408;PMS5003;67697;50.750;-3.270;2023-04-01T02:11:49;5;4;
78408;PMS5003;67697;50.750;-3.270;2023-04-01T02:14:14;3;2;
78408;PMS5003;67697;50.750;-3.270;2023-04-01T02:16:41;4;2;
78408;PMS5003;67697;50.750;-3.270;2023-04-01T02:19:05;8;5;
78408;PMS5003;67697;50.750;-3.270;2023-04-01T02:21:31;4;1;
78408;PMS5003;67697;50.750;-3.270;2023-04-01T02:23:56;3;2;
78408;PMS5003;67697;50.750;-3.270;2023-04-01T02:26:22;3;2;
78408;PMS5003;67697;50.750;-3.270;2023-04-01T02:28:48;8;3;
78408;PMS5003;67697;50.750;-3.270;2023-04-01T02:31:13;2;2;
78408;PMS5003;67697;50.750;-3.270;2023-04-01T02:33:39;7;4;
78408;PMS5003;67697;50.750;-3.270;2023-04-01T02:36:05;4;3;
78408;PMS5003;67697;50.750;-3.270;2023-04-01T02:38:30;5;3;
78408;PMS5003;67697;50.750;-3.270;2023-04-01T02:40:57;3;3;
78408;PMS5003;67697;50.750;-3.270;2023-04-01T02:43:21;7;4;
78408;PMS5003;67697;50.750;-3.270;2023-04-01T02:45:47;5;4;
78408;PMS5003;67697;50.750;-3.270;2023-04-01T02:48:13;4;3;
78408;PMS5003;67697;50.750;-3.270;2023-04-01T02:50:38;2;2;
78408;PMS5003;67697;50.750;-3.270;2023-04-01T02:53:04;3;3;
78408;PMS5003;67697;50.750;-3.270;2023-04-01T02:55:30;4;2;
78408;PMS5003;67697;50.750;-3.270;2023-04-01T02:57:55;2;1;
78408;PMS5003;67697;50.750;-3.270;2023-04-01T03:00:21;3;1;
78408;PMS5003;67697;50.750;-3.270;2023-04-01T03:02:47;8;4;
78408;PMS5003;67697;50.750;-3.270;2023-04-01T03:05:12;7;3;
78408;PMS5003;67697;50.750;-3.270;2023-04-01T03:07:38;2;1;
78408;PMS5003;67697;50.750;-3.270;2023-04-01T03:10:04;10;2;
78408;PMS5003;67697;50.750;-3.270;2023-04-01T03:12:29;2;2;
78408;PMS5003;67697;50.750;-3.270;2023-04-01T03:14:55;1;1;
78408;PMS5003;67697;50.750;-3.270;2023-04-01T03:17:20;2;1;
78408;PMS5003;67697;50.750;-3.270;2023-04-01T03:19:45;5;3;
78408;PMS5003;67697;50.750;-3.270;2023-04-01T03:22:11;3;3;
78408;PMS5003;67697;50.750;-3.270;2023-04-01T03:24:37;2;2;
78408;PMS5003;67697;50.750;-3.270;2023-04-01T03:27:03;4;2;
78408;PMS5003;67697;50.750;-3.270;2023-04-01T03:29:28;3;1;
78408;PMS5003;67697;50.750;-3.270;2023-04-01T03:31:54;7;3;
78408;PMS5003;67697;50.750;-3.270;2023-04-01T03:34:19;1;1;
78408;PMS5003;67697;50.750;-3.270;2023-04-01T03:36:45;5;2;
78408;PMS5003;67697;50.750;-3.270;2023-04-01T03:39:10;3;2;
78408;PMS5003;67697;50.750;-3.270;2023-04-01T03:41:36;4;2;
78408;PMS5003;67697;50.750;-3.270;2023-04-01T03:44:02;4;3;
78408;PMS5003;67697;50.750;-3.270;2023-04-01T03:46:27;2;2;
78408;PMS5003;67697;50.750;-3.270;2023-04-01T03:48:53;4;2;
78408;PMS5003;67697;50.750;-3.270;2023-04-01T03:51:19;4;4;
78408;PMS5003;67697;50.750;-3.270;2023-04-01T03:53:44;7;4;
78408;PMS5003;67697;50.750;-3.270;2023-04-01T03:56:10;7;4;
78408;PMS5003;67697;50.750;-3.270;2023-04-01T03:58:36;5;2;
78408;PMS5003;67697;50.750;-3.270;2023-04-01T04:01:02;7;7;
78408;PMS5003;67697;50.750;-3.270;2023-04-01T04:03:27;2;2;
78408;PMS5003;67697;50.750;-3.270;2023-04-01T04:05:52;4;2;
78408;PMS5003;67697;50.750;-3.270;2023-04-01T04:08:17;8;5;
78408;PMS5003;67697;50.750;-3.270;2023-04-01T04:10:42;1;1;
78408;PMS5003;67697;50.750;-3.270;2023-04-01T04:13:08;1;1;
78408;PMS5003;67697;50.750;-3.270;2023-04-01T04:15:33;2;2;
78408;PMS5003;67697;50.750;-3.270;2023-04-01T04:17:59;3;3;
78408;PMS5003;67697;50.750;-3.270;2023-04-01T04:20:25;4;3;
78408;PMS5003;67697;50.750;-3.270;2023-04-01T04:22:51;2;2;
78408;PMS5003;67697;50.750;-3.270;2023-04-01T04:25:16;3;3;
78408;PMS5003;67697;50.750;-3.270;2023-04-01T04:27:42;7;2;
78408;PMS5003;67697;50.750;-3.270;2023-04-01T04:30:08;6;3;
78408;PMS5003;67697;50.750;-3.270;2023-04-01T04:32:33;6;6;
78408;PMS5003;67697;50.750;-3.270;2023-04-01T04:34:59;6;3;
78408;PMS5003;67697;50.750;-3.270;2023-04-01T04:37:25;4;3;
78408;PMS5003;67697;50.750;-3.270;2023-04-01T04:39:50;2;2;
78408;PMS5003;67697;50.750;-3.270;2023-04-01T04:42:16;2;2;
78408;PMS5003;67697;50.750;-3.270;2023-04-01T04:44:42;6;2;
78408;PMS5003;67697;50.750;-3.270;2023-04-01T04:47:07;4;3;
78408;PMS5003;67697;50.750;-3.270;2023-04-01T04:49:33;7;3;
78408;PMS5003;67697;50.750;-3.270;2023-04-01T04:51:59;3;3;
78408;PMS5003;67697;50.750;-3.270;2023-04-01T04:54:24;6;3;
78408;PMS5003;67697;50.750;-3.270;2023-04-01T04:56:50;1;1;
78408;PMS5003;67697;50.750;-3.270;2023-04-01T04:59:16;1;1;
78408;PMS5003;67697;50.750;-3.270;2023-04-01T05:01:41;2;2;
78408;PMS5003;67697;50.750;-3.270;2023-04-01T05:04:07;4;4;
78408;PMS5003;67697;50.750;-3.270;2023-04-01T05:06:33;2;2;
78408;PMS5003;67697;50.750;-3.270;2023-04-01T05:08:58;2;1;
78408;PMS5003;67697;50.750;-3.270;2023-04-01T05:11:24;6;4;
78408;PMS5003;67697;50.750;-3.270;2023-04-01T05:13:50;9;6;
78408;PMS5003;67697;50.750;-3.270;2023-04-01T05:16:16;2;2;
78408;PMS5003;67697;50.750;-3.270;2023-04-01T05:18:41;9;6;
78408;PMS5003;67697;50.750;-3.270;2023-04-01T05:21:07;2;2;
78408;PMS5003;67697;50.750;-3.270;2023-04-01T05:23:32;4;2;
78408;PMS5003;67697;50.750;-3.270;2023-04-01T05:25:58;4;4;
78408;PMS5003;67697;50.750;-3.270;2023-04-01T05:28:24;2;2;
78408;PMS5003;67697;50.750;-3.270;2023-04-01T05:30:49;7;3;
78408;PMS5003;67697;50.750;-3.270;2023-04-01T05:33:15;7;1;
78408;PMS5003;67697;50.750;-3.270;2023-04-01T05:35:41;3;2;
78408;PMS5003;67697;50.750;-3.270;2023-04-01T05:38:07;2;2;
78408;PMS5003;67697;50.750;-3.270;2023-04-01T05:40:32;3;2;
78408;PMS5003;67697;50.750;-3.270;2023-04-01T05:42:58;3;3;
78408;PMS5003;67697;50.750;-3.270;2023-04-01T05:45:23;3;2;
78408;PMS5003;67697;50.750;-3.270;2023-04-01T05:47:49;2;2;
78408;PMS5003;67697;50.750;-3.270;2023-04-01T05:50:15;1;1;
78408;PMS5003;67697;50.750;-3.270;2023-04-01T05:52:40;7;3;
78408;PMS5003;67697;50.750;-3.270;2023-04-01T05:55:06;3;2;
78408;PMS5003;67697;50.750;-3.270;2023-04-01T05:57:32;6;2;
78408;PMS5003;67697;50.750;-3.270;2023-04-01T05:59:57;2;0;
78408;PMS5003;67697;50.750;-3.270;2023-04-01T06:02:23;7;3;
78408;PMS5003;67697;50.750;-3.270;2023-04-01T06:04:49;3;3;
78408;PMS5003;67697;50.750;-3.270;2023-04-01T06:07:15;4;2;
78408;PMS5003;67697;50.750;-3.270;2023-04-01T06:09:40;4;3;
78408;PMS5003;67697;50.750;-3.270;2023-04-01T06:12:16;7;2;
78408;PMS5003;67697;50.750;-3.270;2023-04-01T06:14:34;4;2;
78408;PMS5003;67697;50.750;-3.270;2023-04-01T06:17:01;4;2;
78408;PMS5003;67697;50.750;-3.270;2023-04-01T06:19:28;4;3;
78408;PMS5003;67697;50.750;-3.270;2023-04-01T06:21:54;2;2;
78408;PMS5003;67697;50.750;-3.270;2023-04-01T06:24:18;6;3;
78408;PMS5003;67697;50.750;-3.270;2023-04-01T06:26:42;7;3;
78408;PMS5003;67697;50.750;-3.270;2023-04-01T06:29:10;4;1;
78408;PMS5003;67697;50.750;-3.270;2023-04-01T06:31:35;2;2;
78408;PMS5003;67697;50.750;-3.270;2023-04-01T06:34:02;3;3;
78408;PMS5003;67697;50.750;-3.270;2023-04-01T06:36:26;2;2;
78408;PMS5003;67697;50.750;-3.270;2023-04-01T06:38:52;6;3;
78408;PMS5003;67697;50.750;-3.270;2023-04-01T06:41:19;3;1;
78408;PMS5003;67697;50.750;-3.270;2023-04-01T06:43:43;3;3;
78408;PMS5003;67697;50.750;-3.270;2023-04-01T06:46:07;2;2;
78408;PMS5003;67697;50.750;-3.270;2023-04-01T06:48:36;6;3;
78408;PMS5003;67697;50.750;-3.270;2023-04-01T06:50:58;4;2;
78408;PMS5003;67697;50.750;-3.270;2023-04-01T06:53:24;6;4;
78408;PMS5003;67697;50.750;-3.270;2023-04-01T06:55:49;2;2;
78408;PMS5003;67697;50.750;-3.270;2023-04-01T06:58:17;2;1;
78408;PMS5003;67697;50.750;-3.270;2023-04-01T07:00:40;3;1;
78408;PMS5003;67697;50.750;-3.270;2023-04-01T07:03:06;3;1;
78408;PMS5003;67697;50.750;-3.270;2023-04-01T07:05:31;6;3;
78408;PMS5003;67697;50.750;-3.270;2023-04-01T07:07:57;2;1;
78408;PMS5003;67697;50.750;-3.270;2023-04-01T07:10:23;1;1;
78408;PMS5003;67697;50.750;-3.270;2023-04-01T07:12:48;4;3;
78408;PMS5003;67697;50.750;-3.270;2023-04-01T07:15:16;7;4;
78408;PMS5003;67697;50.750;-3.270;2023-04-01T07:20:05;2;1;
78408;PMS5003;67697;50.750;-3.270;2023-04-01T07:22:31;6;3;
78408;PMS5003;67697;50.750;-3.270;2023-04-01T07:24:56;7;1;
78408;PMS5003;67697;50.750;-3.270;2023-04-01T07:27:22;1;1;
78408;PMS5003;67697;50.750;-3.270;2023-04-01T07:29:47;5;2;
78408;PMS5003;67697;50.750;-3.270;2023-04-01T07:32:15;3;3;
78408;PMS5003;67697;50.750;-3.270;2023-04-01T07:34:41;2;1;
78408;PMS5003;67697;50.750;-3.270;2023-04-01T07:37:05;4;3;
78408;PMS5003;67697;50.750;-3.270;2023-04-01T07:39:33;5;3;
78408;PMS5003;67697;50.750;-3.270;2023-04-01T07:41:57;1;1;
78408;PMS5003;67697;50.750;-3.270;2023-04-01T07:44:24;3;2;
78408;PMS5003;67697;50.750;-3.270;2023-04-01T07:46:50;5;3;
78408;PMS5003;67697;50.750;-3.270;2023-04-01T07:49:14;13;4;
78408;PMS5003;67697;50.750;-3.270;2023-04-01T07:51:38;4;4;
78408;PMS5003;67697;50.750;-3.270;2023-04-01T07:54:05;3;3;
78408;PMS5003;67697;50.750;-3.270;2023-04-01T07:56:30;1;1;
78408;PMS5003;67697;50.750;-3.270;2023-04-01T07:58:57;2;1;
78408;PMS5003;67697;50.750;-3.270;2023-04-01T08:01:22;4;2;
78408;PMS5003;67697;50.750;-3.270;2023-04-01T08:03:53;3;2;
78408;PMS5003;67697;50.750;-3.270;2023-04-01T08:06:13;2;1;
78408;PMS5003;67697;50.750;-3.270;2023-04-01T08:08:40;5;3;
78408;PMS5003;67697;50.750;-3.270;2023-04-01T08:11:04;4;3;
78408;PMS5003;67697;50.750;-3.270;2023-04-01T08:13:30;3;3;
78408;PMS5003;67697;50.750;-3.270;2023-04-01T08:15:55;4;3;
78408;PMS5003;67697;50.750;-3.270;2023-04-01T08:18:22;3;2;
78408;PMS5003;67697;50.750;-3.270;2023-04-01T08:20:46;7;3;
78408;PMS5003;67697;50.750;-3.270;2023-04-01T08:23:12;8;3;
78408;PMS5003;67697;50.750;-3.270;2023-04-01T08:25:37;4;1;
78408;PMS5003;67697;50.750;-3.270;2023-04-01T08:28:03;1;1;
78408;PMS5003;67697;50.750;-3.270;2023-04-01T08:30:29;2;2;
78408;PMS5003;67697;50.750;-3.270;2023-04-01T08:32:54;4;1;
78408;PMS5003;67697;50.750;-3.270;2023-04-01T08:35:22;2;1;
78408;PMS5003;67697;50.750;-3.270;2023-04-01T08:37:44;3;1;
78408;PMS5003;67697;50.750;-3.270;2023-04-01T08:40:16;4;1;
78408;PMS5003;67697;50.750;-3.270;2023-04-01T08:42:41;3;2;
78408;PMS5003;67697;50.750;-3.270;2023-04-01T08:45:06;3;2;
78408;PMS5003;67697;50.750;-3.270;2023-04-01T08:47:31;2;1;
78408;PMS5003;67697;50.750;-3.270;2023-04-01T08:49:56;5;2;
78408;PMS5003;67697;50.750;-3.270;2023-04-01T08:52:20;1;0;
78408;PMS5003;67697;50.750;-3.270;2023-04-01T08:54:46;0;0;
78408;PMS5003;67697;50.750;-3.270;2023-04-01T08:57:10;5;3;
78408;PMS5003;67697;50.750;-3.270;2023-04-01T08:59:38;4;2;
78408;PMS5003;67697;50.750;-3.270;2023-04-01T09:02:10;3;1;
78408;PMS5003;67697;50.750;-3.270;2023-04-01T09:04:30;1;1;
78408;PMS5003;67697;50.750;-3.270;2023-04-01T09:06:55;5;2;
78408;PMS5003;67697;50.750;-3.270;2023-04-01T09:09:21;3;2;
78408;PMS5003;67697;50.750;-3.270;2023-04-01T09:11:45;2;2;
78408;PMS5003;67697;50.750;-3.270;2023-04-01T09:16:39;1;1;
78408;PMS5003;67697;50.750;-3.270;2023-04-01T09:21:28;2;2;
78408;PMS5003;67697;50.750;-3.270;2023-04-01T09:23:58;2;2;
78408;PMS5003;67697;50.750;-3.270;2023-04-01T09:26:21;1;1;
78408;PMS5003;67697;50.750;-3.270;2023-04-01T09:28:42;1;1;
78408;PMS5003;67697;50.750;-3.270;2023-04-01T09:31:10;0;0;
78408;PMS5003;67697;50.750;-3.270;2023-04-01T09:33:45;1;1;
78408;PMS5003;67697;50.750;-3.270;2023-04-01T09:36:02;1;1;
78408;PMS5003;67697;50.750;-3.270;2023-04-01T09:38:28;1;1;
78408;PMS5003;67697;50.750;-3.270;2023-04-01T09:40:54;2;2;
78408;PMS5003;67697;50.750;-3.270;2023-04-01T09:43:19;1;1;
78408;PMS5003;67697;50.750;-3.270;2023-04-01T09:45:44;0;0;
78408;PMS5003;67697;50.750;-3.270;2023-04-01T09:48:10;1;1;
78408;PMS5003;67697;50.750;-3.270;2023-04-01T09:50:35;1;1;
78408;PMS5003;67697;50.750;-3.270;2023-04-01T09:53:02;0;0;
78408;PMS5003;67697;50.750;-3.270;2023-04-01T10:00:23;2;1;
78408;PMS5003;67697;50.750;-3.270;2023-04-01T10:07:36;3;1;
78408;PMS5003;67697;50.750;-3.270;2023-04-01T10:12:36;4;1;
78408;PMS5003;67697;50.750;-3.270;2023-04-01T10:17:19;3;1;
78408;PMS5003;67697;50.750;-3.270;2023-04-01T10:24:34;3;1;
78408;PMS5003;67697;50.750;-3.270;2023-04-01T10:29:32;2;1;
78408;PMS5003;67697;50.750;-3.270;2023-04-01T10:36:48;1;1;
78408;PMS5003;67697;50.750;-3.270;2023-04-01T10:44:01;4;0;
78408;PMS5003;67697;50.750;-3.270;2023-04-01T10:51:18;2;0;
78408;PMS5003;67697;50.750;-3.270;2023-04-01T10:53:42;4;1;
78408;PMS5003;67697;50.750;-3.270;2023-04-01T11:05:55;0;0;
78408;PMS5003;67697;50.750;-3.270;2023-04-01T11:08:18;1;0;
78408;PMS5003;67697;50.750;-3.270;2023-04-01T11:13:10;0;0;
78408;PMS5003;67697;50.750;-3.270;2023-04-01T11:15:37;1;1;
78408;PMS5003;67697;50.750;-3.270;2023-04-01T11:18:03;0;0;
78408;PMS5003;67697;50.750;-3.270;2023-04-01T11:22:51;3;0;
78408;PMS5003;67697;50.750;-3.270;2023-04-01T11:27:42;2;1;
78408;PMS5003;67697;50.750;-3.270;2023-04-01T11:30:07;1;0;
78408;PMS5003;67697;50.750;-3.270;2023-04-01T11:32:32;0;0;
78408;PMS5003;67697;50.750;-3.270;2023-04-01T11:34:57;1;1;
78408;PMS5003;67697;50.750;-3.270;2023-04-01T11:37:24;1;1;
78408;PMS5003;67697;50.750;-3.270;2023-04-01T11:39:59;1;1;
78408;PMS5003;67697;50.750;-3.270;2023-04-01T11:42:16;0;0;
78408;PMS5003;67697;50.750;-3.270;2023-04-01T11:44:39;0;0;
78408;PMS5003;67697;50.750;-3.270;2023-04-01T11:47:18;1;1;
78408;PMS5003;67697;50.750;-3.270;2023-04-01T11:49:33;0;0;
78408;PMS5003;67697;50.750;-3.270;2023-04-01T11:51:57;0;0;
78408;PMS5003;67697;50.750;-3.270;2023-04-01T11:54:25;1;1;
78408;PMS5003;67697;50.750;-3.270;2023-04-01T11:56:50;0;0;
78408;PMS5003;67697;50.750;-3.270;2023-04-01T12:01:42;1;1;
78408;PMS5003;67697;50.750;-3.270;2023-04-01T12:06:30;0;0;
78408;PMS5003;67697;50.750;-3.270;2023-04-01T12:08:55;2;1;
78408;PMS5003;67697;50.750;-3.270;2023-04-01T12:11:21;0;0;
78408;PMS5003;67697;50.750;-3.270;2023-04-01T12:13:47;0;0;
78408;PMS5003;67697;50.750;-3.270;2023-04-01T12:16:16;1;1;
78408;PMS5003;67697;50.750;-3.270;2023-04-01T12:18:38;3;1;
78408;PMS5003;67697;50.750;-3.270;2023-04-01T12:21:03;1;1;
78408;PMS5003;67697;50.750;-3.270;2023-04-01T12:23:37;0;0;
78408;PMS5003;67697;50.750;-3.270;2023-04-01T12:26:00;2;2;
78408;PMS5003;67697;50.750;-3.270;2023-04-01T12:28:20;0;0;
78408;PMS5003;67697;50.750;-3.270;2023-04-01T12:30:47;1;1;
78408;PMS5003;67697;50.750;-3.270;2023-04-01T12:33:16;1;1;
78408;PMS5003;67697;50.750;-3.270;2023-04-01T12:35:38;1;1;
78408;PMS5003;67697;50.750;-3.270;2023-04-01T12:38:08;1;1;
78408;PMS5003;67697;50.750;-3.270;2023-04-01T12:40:31;1;1;
78408;PMS5003;67697;50.750;-3.270;2023-04-01T12:42:57;0;0;
78408;PMS5003;67697;50.750;-3.270;2023-04-01T12:45:23;1;1;
78408;PMS5003;67697;50.750;-3.270;2023-04-01T12:47:56;1;1;
78408;PMS5003;67697;50.750;-3.270;2023-04-01T12:50:14;1;1;
78408;PMS5003;67697;50.750;-3.270;2023-04-01T12:52:38;0;0;
78408;PMS5003;67697;50.750;-3.270;2023-04-01T12:55:08;1;0;
78408;PMS5003;67697;50.750;-3.270;2023-04-01T12:57:31;0;0;
78408;PMS5003;67697;50.750;-3.270;2023-04-01T12:59:57;0;0;
78408;PMS5003;67697;50.750;-3.270;2023-04-01T13:02:20;1;1;
78408;PMS5003;67697;50.750;-3.270;2023-04-01T13:04:47;1;1;
78408;PMS5003;67697;50.750;-3.270;2023-04-01T13:07:17;0;0;
78408;PMS5003;67697;50.750;-3.270;2023-04-01T13:09:36;0;0;
78408;PMS5003;67697;50.750;-3.270;2023-04-01T13:12:05;1;1;
78408;PMS5003;67697;50.750;-3.270;2023-04-01T13:14:31;2;1;
78408;PMS5003;67697;50.750;-3.270;2023-04-01T13:16:52;0;0;
78408;PMS5003;67697;50.750;-3.270;2023-04-01T13:19:17;0;0;
78408;PMS5003;67697;50.750;-3.270;2023-04-01T13:21:45;1;0;
78408;PMS5003;67697;50.750;-3.270;2023-04-01T13:24:22;0;0;
78408;PMS5003;67697;50.750;-3.270;2023-04-01T13:26:34;1;1;
78408;PMS5003;67697;50.750;-3.270;2023-04-01T13:29:01;1;1;
78408;PMS5003;67697;50.750;-3.270;2023-04-01T13:31:29;0;0;
78408;PMS5003;67697;50.750;-3.270;2023-04-01T13:33:53;1;1;
78408;PMS5003;67697;50.750;-3.270;2023-04-01T13:36:19;0;0;
78408;PMS5003;67697;50.750;-3.270;2023-04-01T13:38:46;1;1;
78408;PMS5003;67697;50.750;-3.270;2023-04-01T13:41:10;1;1;
78408;PMS5003;67697;50.750;-3.270;2023-04-01T13:43:34;1;1;
78408;PMS5003;67697;50.750;-3.270;2023-04-01T13:46:08;2;0;
78408;PMS5003;67697;50.750;-3.270;2023-04-01T13:48:29;1;1;
78408;PMS5003;67697;50.750;-3.270;2023-04-01T13:50:54;1;1;
78408;PMS5003;67697;50.750;-3.270;2023-04-01T13:53:18;1;1;
78408;PMS5003;67697;50.750;-3.270;2023-04-01T13:55:49;2;1;
78408;PMS5003;67697;50.750;-3.270;2023-04-01T13:58:13;2;2;
78408;PMS5003;67697;50.750;-3.270;2023-04-01T14:00:38;1;1;
78408;PMS5003;67697;50.750;-3.270;2023-04-01T14:03:04;1;1;
78408;PMS5003;67697;50.750;-3.270;2023-04-01T14:05:29;2;2;
78408;PMS5003;67697;50.750;-3.270;2023-04-01T14:07:51;0;0;
78408;PMS5003;67697;50.750;-3.270;2023-04-01T14:10:18;2;1;
78408;PMS5003;67697;50.750;-3.270;2023-04-01T14:12:42;2;1;
78408;PMS5003;67697;50.750;-3.270;2023-04-01T14:15:10;2;2;
78408;PMS5003;67697;50.750;-3.270;2023-04-01T14:17:36;3;3;
78408;PMS5003;67697;50.750;-3.270;2023-04-01T14:20:02;3;3;
78408;PMS5003;67697;50.750;-3.270;2023-04-01T14:22:25;3;3;
78408;PMS5003;67697;50.750;-3.270;2023-04-01T14:24:53;4;4;
78408;PMS5003;67697;50.750;-3.270;2023-04-01T14:27:19;1;1;
78408;PMS5003;67697;50.750;-3.270;2023-04-01T14:29:42;1;1;
78408;PMS5003;67697;50.750;-3.270;2023-04-01T14:32:07;3;3;
78408;PMS5003;67697;50.750;-3.270;2023-04-01T14:34:35;3;2;
78408;PMS5003;67697;50.750;-3.270;2023-04-01T14:37:03;2;2;
78408;PMS5003;67697;50.750;-3.270;2023-04-01T14:39:27;3;3;
78408;PMS5003;67697;50.750;-3.270;2023-04-01T14:41:48;2;2;
78408;PMS5003;67697;50.750;-3.270;2023-04-01T14:44:18;3;3;
78408;PMS5003;67697;50.750;-3.270;2023-04-01T14:49:13;2;2;
78408;PMS5003;67697;50.750;-3.270;2023-04-01T14:51:31;3;2;
78408;PMS5003;67697;50.750;-3.270;2023-04-01T14:54:01;3;2;
78408;PMS5003;67697;50.750;-3.270;2023-04-01T14:58:49;3;3;
78408;PMS5003;67697;50.750;-3.270;2023-04-01T15:01:19;2;2;
78408;PMS5003;67697;50.750;-3.270;2023-04-01T15:03:39;3;3;
78408;PMS5003;67697;50.750;-3.270;2023-04-01T15:06:27;4;3;
78408;PMS5003;67697;50.750;-3.270;2023-04-01T15:08:29;4;4;
78408;PMS5003;67697;50.750;-3.270;2023-04-01T15:11:00;5;2;
78408;PMS5003;67697;50.750;-3.270;2023-04-01T15:13:24;3;3;
78408;PMS5003;67697;50.750;-3.270;2023-04-01T15:15:51;3;3;
78408;PMS5003;67697;50.750;-3.270;2023-04-01T15:18:12;5;5;
78408;PMS5003;67697;50.750;-3.270;2023-04-01T15:20:49;3;3;
78408;PMS5003;67697;50.750;-3.270;2023-04-01T15:23:09;3;3;
78408;PMS5003;67697;50.750;-3.270;2023-04-01T15:25:33;4;4;
78408;PMS5003;67697;50.750;-3.270;2023-04-01T15:27:55;3;3;
78408;PMS5003;67697;50.750;-3.270;2023-04-01T15:30:22;8;6;
78408;PMS5003;67697;50.750;-3.270;2023-04-01T15:32:48;3;3;
78408;PMS5003;67697;50.750;-3.270;2023-04-01T15:35:14;5;3;
78408;PMS5003;67697;50.750;-3.270;2023-04-01T15:37:37;5;5;
78408;PMS5003;67697;50.750;-3.270;2023-04-01T15:40:06;6;6;
78408;PMS5003;67697;50.750;-3.270;2023-04-01T15:42:32;6;6;
78408;PMS5003;67697;50.750;-3.270;2023-04-01T15:44:57;4;4;
78408;PMS5003;67697;50.750;-3.270;2023-04-01T15:49:46;5;5;
78408;PMS5003;67697;50.750;-3.270;2023-04-01T15:52:13;4;4;
78408;PMS5003;67697;50.750;-3.270;2023-04-01T15:57:10;4;3;
78408;PMS5003;67697;50.750;-3.270;2023-04-01T15:59:33;4;4;
78408;PMS5003;67697;50.750;-3.270;2023-04-01T16:01:55;6;6;
78408;PMS5003;67697;50.750;-3.270;2023-04-01T16:04:25;5;4;
78408;PMS5003;67697;50.750;-3.270;2023-04-01T16:06:48;4;4;
78408;PMS5003;67697;50.750;-3.270;2023-04-01T16:09:14;7;5;
78408;PMS5003;67697;50.750;-3.270;2023-04-01T16:11:38;5;4;
78408;PMS5003;67697;50.750;-3.270;2023-04-01T16:14:06;4;4;
78408;PMS5003;67697;50.750;-3.270;2023-04-01T16:16:30;4;4;
78408;PMS5003;67697;50.750;-3.270;2023-04-01T16:21:24;7;4;
78408;PMS5003;67697;50.750;-3.270;2023-04-01T16:23:48;4;4;
78408;PMS5003;67697;50.750;-3.270;2023-04-01T16:26:13;3;3;
78408;PMS5003;67697;50.750;-3.270;2023-04-01T16:28:38;3;3;
78408;PMS5003;67697;50.750;-3.270;2023-04-01T16:31:04;4;4;
78408;PMS5003;67697;50.750;-3.270;2023-04-01T16:33:31;4;4;
78408;PMS5003;67697;50.750;-3.270;2023-04-01T16:35:53;6;4;
78408;PMS5003;67697;50.750;-3.270;2023-04-01T16:38:19;4;3;
78408;PMS5003;67697;50.750;-3.270;2023-04-01T16:40:45;6;6;
78408;PMS5003;67697;50.750;-3.270;2023-04-01T16:43:11;6;5;
78408;PMS5003;67697;50.750;-3.270;2023-04-01T16:45:35;7;7;
78408;PMS5003;67697;50.750;-3.270;2023-04-01T16:48:01;4;4;
78408;PMS5003;67697;50.750;-3.270;2023-04-01T16:50:26;6;6;
78408;PMS5003;67697;50.750;-3.270;2023-04-01T16:52:54;11;11;
78408;PMS5003;67697;50.750;-3.270;2023-04-01T16:55:17;11;8;
78408;PMS5003;67697;50.750;-3.270;2023-04-01T16:57:45;41;33;
78408;PMS5003;67697;50.750;-3.270;2023-04-01T17:02:35;15;13;
78408;PMS5003;67697;50.750;-3.270;2023-04-01T17:05:01;21;15;
78408;PMS5003;67697;50.750;-3.270;2023-04-01T17:07:27;19;16;
78408;PMS5003;67697;50.750;-3.270;2023-04-01T17:09:58;9;9;
78408;PMS5003;67697;50.750;-3.270;2023-04-01T17:12:17;2;2;
78408;PMS5003;67697;50.750;-3.270;2023-04-01T17:14:43;5;4;
78408;PMS5003;67697;50.750;-3.270;2023-04-01T17:17:11;8;8;
78408;PMS5003;67697;50.750;-3.270;2023-04-01T17:19:37;9;8;
78408;PMS5003;67697;50.750;-3.270;2023-04-01T17:22:01;4;4;
78408;PMS5003;67697;50.750;-3.270;2023-04-01T17:24:28;4;4;
78408;PMS5003;67697;50.750;-3.270;2023-04-01T17:26:50;5;5;
78408;PMS5003;67697;50.750;-3.270;2023-04-01T17:29:17;7;7;
78408;PMS5003;67697;50.750;-3.270;2023-04-01T17:31:45;8;6;
78408;PMS5003;67697;50.750;-3.270;2023-04-01T17:34:14;10;8;
78408;PMS5003;67697;50.750;-3.270;2023-04-01T17:36:36;6;6;
78408;PMS5003;67697;50.750;-3.270;2023-04-01T17:39:03;4;4;
78408;PMS5003;67697;50.750;-3.270;2023-04-01T17:41:27;8;6;
78408;PMS5003;67697;50.750;-3.270;2023-04-01T17:43:50;6;6;